sensor_id;sensor_type;location;lat;lon;timestamp;pressure;altitude;pressure_sealevel;temperature;humidity
56082;BME280;41957;52.060;5.138;2022-10-30T00:01:06;101747.22;;;17.96;79.01
56082;BME280;41957;52.060;5.138;2022-10-30T00:03:31;101748.09;;;17.96;79.03
56082;BME280;41957;52.060;5.138;2022-10-30T00:05:57;101753.41;;;17.96;79.22
56082;BME280;41957;52.060;5.138;2022-10-30T00:08:22;101749.88;;;17.96;79.12
56082;BME280;41957;52.060;5.138;2022-10-30T00:10:51;101746.31;;;17.95;79.25
56082;BME280;41957;52.060;5.138;2022-10-30T00:13:18;101755.19;;;17.96;79.25
56082;BME280;41957;52.060;5.138;2022-10-30T00:15:50;101759.63;;;17.95;79.64
56082;BME280;41957;52.060;5.138;2022-10-30T00:18:17;101754.31;;;17.95;79.58
56082;BME280;41957;52.060;5.138;2022-10-30T00:20:42;101755.31;;;17.93;79.30
56082;BME280;41957;52.060;5.138;2022-10-30T00:23:08;101754.41;;;17.92;79.21
56082;BME280;41957;52.060;5.138;2022-10-30T00:25:34;101747.34;;;17.91;79.27
56082;BME280;41957;52.060;5.138;2022-10-30T00:28:00;101753.53;;;17.92;79.38
56082;BME280;41957;52.060;5.138;2022-10-30T00:30:26;101747.34;;;17.91;79.51
56082;BME280;41957;52.060;5.138;2022-10-30T00:32:51;101750.88;;;17.92;79.13
56082;BME280;41957;52.060;5.138;2022-10-30T00:35:16;101742.13;;;17.88;79.13
56082;BME280;41957;52.060;5.138;2022-10-30T00:37:42;101742.97;;;17.90;79.08
56082;BME280;41957;52.060;5.138;2022-10-30T00:40:13;101733.22;;;17.89;79.33
56082;BME280;41957;52.060;5.138;2022-10-30T00:42:38;101741.28;;;17.87;79.35
56082;BME280;41957;52.060;5.138;2022-10-30T00:45:04;101748.31;;;17.88;79.20
56082;BME280;41957;52.060;5.138;2022-10-30T00:47:33;101748.31;;;17.88;79.18
56082;BME280;41957;52.060;5.138;2022-10-30T00:50:33;101751.06;;;17.87;79.26
56082;BME280;41957;52.060;5.138;2022-10-30T00:53:04;101754.56;;;17.87;79.36
56082;BME280;41957;52.060;5.138;2022-10-30T00:55:34;101754.59;;;17.86;79.37
56082;BME280;41957;52.060;5.138;2022-10-30T00:58:04;101755.53;;;17.85;79.06
56082;BME280;41957;52.060;5.138;2022-10-30T01:00:33;101755.50;;;17.86;79.12
56082;BME280;41957;52.060;5.138;2022-10-30T01:03:01;101750.22;;;17.85;79.61
56082;BME280;41957;52.060;5.138;2022-10-30T01:05:28;101750.22;;;17.85;79.64
56082;BME280;41957;52.060;5.138;2022-10-30T01:07:55;101748.44;;;17.85;79.30
56082;BME280;41957;52.060;5.138;2022-10-30T01:10:21;101746.72;;;17.83;79.31
56082;BME280;41957;52.060;5.138;2022-10-30T01:12:48;101744.06;;;17.83;79.64
56082;BME280;41957;52.060;5.138;2022-10-30T01:15:16;101748.50;;;17.84;79.56
56082;BME280;41957;52.060;5.138;2022-10-30T01:21:18;101751.16;;;17.84;79.44
56082;BME280;41957;52.060;5.138;2022-10-30T01:26:55;101743.22;;;17.82;79.49
56082;BME280;41957;52.060;5.138;2022-10-30T01:29:46;101756.56;;;17.81;79.40
56082;BME280;41957;52.060;5.138;2022-10-30T01:35:15;101761.03;;;17.80;79.27
56082;BME280;41957;52.060;5.138;2022-10-30T01:38:02;101765.44;;;17.80;79.13
56082;BME280;41957;52.060;5.138;2022-10-30T01:40:32;101770.78;;;17.80;79.56
56082;BME280;41957;52.060;5.138;2022-10-30T01:42:58;101769.03;;;17.79;79.42
56082;BME280;41957;52.060;5.138;2022-10-30T01:48:06;101770.84;;;17.77;79.23
56082;BME280;41957;52.060;5.138;2022-10-30T01:51:19;101770.84;;;17.77;79.38
56082;BME280;41957;52.060;5.138;2022-10-30T01:57:10;101773.56;;;17.75;78.98
56082;BME280;41957;52.060;5.138;2022-10-30T01:59:40;101773.59;;;17.74;79.19
56082;BME280;41957;52.060;5.138;2022-10-30T02:02:08;101772.69;;;17.75;79.45
56082;BME280;41957;52.060;5.138;2022-10-30T02:04:34;101769.22;;;17.73;79.30
56082;BME280;41957;52.060;5.138;2022-10-30T02:06:59;101771.84;;;17.74;78.98
56082;BME280;41957;52.060;5.138;2022-10-30T02:09:25;101771.84;;;17.74;79.43
56082;BME280;41957;52.060;5.138;2022-10-30T02:11:51;101775.38;;;17.73;79.23
56082;BME280;41957;52.060;5.138;2022-10-30T02:14:37;101778.13;;;17.72;79.45
56082;BME280;41957;52.060;5.138;2022-10-30T02:17:04;101769.22;;;17.73;79.50
56082;BME280;41957;52.060;5.138;2022-10-30T02:19:30;101773.66;;;17.72;79.25
56082;BME280;41957;52.060;5.138;2022-10-30T02:21:56;101771.97;;;17.70;79.31
56082;BME280;41957;52.060;5.138;2022-10-30T02:24:21;101773.75;;;17.69;79.31
56082;BME280;41957;52.060;5.138;2022-10-30T02:26:46;101773.75;;;17.69;78.94
56082;BME280;41957;52.060;5.138;2022-10-30T02:29:12;101775.59;;;17.67;79.18
56082;BME280;41957;52.060;5.138;2022-10-30T02:31:37;101781.78;;;17.67;79.37
56082;BME280;41957;52.060;5.138;2022-10-30T02:34:03;101779.13;;;17.67;79.10
56082;BME280;41957;52.060;5.138;2022-10-30T02:36:29;101784.44;;;17.67;79.34
56082;BME280;41957;52.060;5.138;2022-10-30T02:38:54;101787.16;;;17.66;79.02
56082;BME280;41957;52.060;5.138;2022-10-30T02:41:23;101780.97;;;17.65;79.17
56082;BME280;41957;52.060;5.138;2022-10-30T02:43:49;101770.38;;;17.64;79.09
56082;BME280;41957;52.060;5.138;2022-10-30T02:46:16;101773.03;;;17.64;79.24
56082;BME280;41957;52.060;5.138;2022-10-30T02:48:41;101774.81;;;17.63;79.18
56082;BME280;41957;52.060;5.138;2022-10-30T02:51:07;101777.47;;;17.63;78.89
56082;BME280;41957;52.060;5.138;2022-10-30T02:53:32;101781.00;;;17.64;79.04
56082;BME280;41957;52.060;5.138;2022-10-30T02:56:09;101780.16;;;17.62;79.07
56082;BME280;41957;52.060;5.138;2022-10-30T02:58:35;101782.84;;;17.62;78.89
56082;BME280;41957;52.060;5.138;2022-10-30T03:01:08;101779.31;;;17.61;79.09
56082;BME280;41957;52.060;5.138;2022-10-30T03:03:36;101773.19;;;17.59;79.00
56082;BME280;41957;52.060;5.138;2022-10-30T03:06:03;101784.72;;;17.58;79.30
56082;BME280;41957;52.060;5.138;2022-10-30T03:08:29;101772.28;;;17.59;79.23
56082;BME280;41957;52.060;5.138;2022-10-30T03:10:59;101778.50;;;17.59;79.23
56082;BME280;41957;52.060;5.138;2022-10-30T03:13:27;101781.16;;;17.59;79.07
56082;BME280;41957;52.060;5.138;2022-10-30T03:15:52;101778.50;;;17.59;78.96
56082;BME280;41957;52.060;5.138;2022-10-30T03:18:22;101783.81;;;17.59;78.84
56082;BME280;41957;52.060;5.138;2022-10-30T03:20:48;101781.16;;;17.59;79.20
56082;BME280;41957;52.060;5.138;2022-10-30T03:23:13;101784.78;;;17.57;78.88
56082;BME280;41957;52.060;5.138;2022-10-30T03:25:38;101789.25;;;17.56;79.31
56082;BME280;41957;52.060;5.138;2022-10-30T03:28:04;101792.75;;;17.57;79.10
56082;BME280;41957;52.060;5.138;2022-10-30T03:30:29;101791.00;;;17.56;79.17
56082;BME280;41957;52.060;5.138;2022-10-30T03:32:54;101785.75;;;17.54;78.99
56082;BME280;41957;52.060;5.138;2022-10-30T03:35:20;101784.88;;;17.54;78.75
56082;BME280;41957;52.060;5.138;2022-10-30T03:37:45;101792.84;;;17.54;78.73
56082;BME280;41957;52.060;5.138;2022-10-30T03:40:10;101791.09;;;17.53;78.69
56082;BME280;41957;52.060;5.138;2022-10-30T03:42:38;101787.56;;;17.52;78.88
56082;BME280;41957;52.060;5.138;2022-10-30T03:45:04;101789.38;;;17.52;78.85
56082;BME280;41957;52.060;5.138;2022-10-30T03:47:30;101780.56;;;17.50;79.05
56082;BME280;41957;52.060;5.138;2022-10-30T03:49:55;101787.66;;;17.49;78.73
56082;BME280;41957;52.060;5.138;2022-10-30T03:52:20;101786.81;;;17.49;78.75
56082;BME280;41957;52.060;5.138;2022-10-30T03:54:46;101783.31;;;17.47;78.58
56082;BME280;41957;52.060;5.138;2022-10-30T03:57:11;101787.72;;;17.48;78.77
56082;BME280;41957;52.060;5.138;2022-10-30T03:59:36;101786.88;;;17.47;78.82
56082;BME280;41957;52.060;5.138;2022-10-30T04:02:02;101780.63;;;17.48;78.55
56082;BME280;41957;52.060;5.138;2022-10-30T04:04:27;101780.63;;;17.48;78.88
56082;BME280;41957;52.060;5.138;2022-10-30T04:06:52;101778.91;;;17.47;78.60
56082;BME280;41957;52.060;5.138;2022-10-30T04:09:17;101773.59;;;17.46;79.06
56082;BME280;41957;52.060;5.138;2022-10-30T04:11:43;101770.09;;;17.45;78.99
56082;BME280;41957;52.060;5.138;2022-10-30T04:14:08;101784.25;;;17.46;78.67
56082;BME280;41957;52.060;5.138;2022-10-30T04:16:33;101787.75;;;17.46;78.81
56082;BME280;41957;52.060;5.138;2022-10-30T04:18:59;101792.28;;;17.44;79.02
56082;BME280;41957;52.060;5.138;2022-10-30T04:21:24;101785.16;;;17.45;79.07
56082;BME280;41957;52.060;5.138;2022-10-30T04:23:49;101778.16;;;17.42;78.56
56082;BME280;41957;52.060;5.138;2022-10-30T04:26:15;101777.31;;;17.40;79.08
56082;BME280;41957;52.060;5.138;2022-10-30T04:28:40;101775.50;;;17.42;78.62
56082;BME280;41957;52.060;5.138;2022-10-30T04:31:05;101781.78;;;17.39;78.90
56082;BME280;41957;52.060;5.138;2022-10-30T04:33:31;101786.22;;;17.39;78.50
56082;BME280;41957;52.060;5.138;2022-10-30T04:35:56;101787.94;;;17.40;78.54
56082;BME280;41957;52.060;5.138;2022-10-30T04:38:21;101790.59;;;17.40;78.83
56082;BME280;41957;52.060;5.138;2022-10-30T04:40:47;101791.53;;;17.39;78.50
56082;BME280;41957;52.060;5.138;2022-10-30T04:43:13;101792.41;;;17.39;78.54
56082;BME280;41957;52.060;5.138;2022-10-30T04:45:39;101796.00;;;17.38;78.83
56082;BME280;41957;52.060;5.138;2022-10-30T04:48:12;101794.22;;;17.37;78.80
56082;BME280;41957;52.060;5.138;2022-10-30T04:50:37;101799.53;;;17.37;78.45
56082;BME280;41957;52.060;5.138;2022-10-30T04:53:23;101793.38;;;17.37;78.67
56082;BME280;41957;52.060;5.138;2022-10-30T04:55:52;101796.94;;;17.36;78.52
56082;BME280;41957;52.060;5.138;2022-10-30T04:58:18;101789.84;;;17.36;78.59
56082;BME280;41957;52.060;5.138;2022-10-30T05:00:43;101793.44;;;17.35;78.62
56082;BME280;41957;52.060;5.138;2022-10-30T05:03:16;101797.88;;;17.35;78.74
56082;BME280;41957;52.060;5.138;2022-10-30T05:05:42;101790.84;;;17.32;78.37
56082;BME280;41957;52.060;5.138;2022-10-30T05:08:08;101796.13;;;17.34;78.56
56082;BME280;41957;52.060;5.138;2022-10-30T05:10:33;101789.06;;;17.33;78.63
56082;BME280;41957;52.060;5.138;2022-10-30T05:12:58;101791.72;;;17.33;78.73
56082;BME280;41957;52.060;5.138;2022-10-30T05:15:24;101790.78;;;17.34;78.40
56082;BME280;41957;52.060;5.138;2022-10-30T05:17:51;101787.34;;;17.32;78.64
56082;BME280;41957;52.060;5.138;2022-10-30T05:20:17;101779.38;;;17.32;78.44
56082;BME280;41957;52.060;5.138;2022-10-30T05:22:42;101781.13;;;17.31;78.54
56082;BME280;41957;52.060;5.138;2022-10-30T05:25:08;101783.84;;;17.30;78.37
56082;BME280;41957;52.060;5.138;2022-10-30T05:27:33;101773.31;;;17.27;78.48
56082;BME280;41957;52.060;5.138;2022-10-30T05:29:58;101774.25;;;17.26;78.66
56082;BME280;41957;52.060;5.138;2022-10-30T05:32:24;101767.16;;;17.25;78.96
56082;BME280;41957;52.060;5.138;2022-10-30T05:34:49;101752.16;;;17.22;78.82
56082;BME280;41957;52.060;5.138;2022-10-30T05:37:14;101758.38;;;17.23;78.88
56082;BME280;41957;52.060;5.138;2022-10-30T05:39:39;101760.16;;;17.22;78.68
56082;BME280;41957;52.060;5.138;2022-10-30T05:42:05;101764.47;;;17.26;77.71
56082;BME280;41957;52.060;5.138;2022-10-30T05:44:30;101756.59;;;17.23;78.70
56082;BME280;41957;52.060;5.138;2022-10-30T05:46:55;101760.97;;;17.24;78.42
56082;BME280;41957;52.060;5.138;2022-10-30T05:49:21;101760.97;;;17.24;78.28
56082;BME280;41957;52.060;5.138;2022-10-30T05:51:46;101759.28;;;17.22;78.56
56082;BME280;41957;52.060;5.138;2022-10-30T05:54:11;101766.34;;;17.23;78.25
56082;BME280;41957;52.060;5.138;2022-10-30T05:56:37;101763.69;;;17.23;78.47
56082;BME280;41957;52.060;5.138;2022-10-30T05:59:02;101766.34;;;17.23;78.59
56082;BME280;41957;52.060;5.138;2022-10-30T06:01:27;101768.13;;;17.22;78.45
56082;BME280;41957;52.060;5.138;2022-10-30T06:03:53;101778.75;;;17.22;78.24
56082;BME280;41957;52.060;5.138;2022-10-30T06:06:18;101785.84;;;17.22;78.33
56082;BME280;41957;52.060;5.138;2022-10-30T06:08:43;101784.06;;;17.22;78.53
56082;BME280;41957;52.060;5.138;2022-10-30T06:11:08;101785.91;;;17.20;78.50
56082;BME280;41957;52.060;5.138;2022-10-30T06:13:34;101785.94;;;17.18;78.31
56082;BME280;41957;52.060;5.138;2022-10-30T06:15:59;101785.06;;;17.19;78.50
56082;BME280;41957;52.060;5.138;2022-10-30T06:18:24;101783.19;;;17.22;79.53
56082;BME280;41957;52.060;5.138;2022-10-30T06:20:50;101783.06;;;17.26;79.84
56082;BME280;41957;52.060;5.138;2022-10-30T06:23:15;101783.84;;;17.30;80.00
56082;BME280;41957;52.060;5.138;2022-10-30T06:25:41;101792.66;;;17.32;80.33
56082;BME280;41957;52.060;5.138;2022-10-30T06:28:06;101796.78;;;17.40;76.34
56082;BME280;41957;52.060;5.138;2022-10-30T06:30:32;101788.19;;;17.32;77.91
56082;BME280;41957;52.060;5.138;2022-10-30T06:33:02;101786.59;;;17.27;78.63
56082;BME280;41957;52.060;5.138;2022-10-30T06:35:28;101792.78;;;17.27;78.94
56082;BME280;41957;52.060;5.138;2022-10-30T06:37:54;101792.78;;;17.27;78.70
56082;BME280;41957;52.060;5.138;2022-10-30T06:40:21;101800.63;;;17.32;79.01
56082;BME280;41957;52.060;5.138;2022-10-30T06:42:49;101795.31;;;17.32;79.25
56082;BME280;41957;52.060;5.138;2022-10-30T06:45:16;101797.03;;;17.33;78.92
56082;BME280;41957;52.060;5.138;2022-10-30T06:47:42;101807.66;;;17.33;79.02
56082;BME280;41957;52.060;5.138;2022-10-30T06:50:09;101800.63;;;17.32;79.16
56082;BME280;41957;52.060;5.138;2022-10-30T06:52:35;101803.38;;;17.29;79.27
56082;BME280;41957;52.060;5.138;2022-10-30T06:55:01;101798.00;;;17.30;79.29
56082;BME280;41957;52.060;5.138;2022-10-30T06:57:26;101792.69;;;17.30;79.13
56082;BME280;41957;52.060;5.138;2022-10-30T06:59:52;101788.22;;;17.31;79.40
56082;BME280;41957;52.060;5.138;2022-10-30T07:02:17;101794.41;;;17.31;79.11
56082;BME280;41957;52.060;5.138;2022-10-30T07:04:43;101797.97;;;17.32;79.22
56082;BME280;41957;52.060;5.138;2022-10-30T07:07:10;101796.19;;;17.32;79.11
56082;BME280;41957;52.060;5.138;2022-10-30T07:09:35;101796.19;;;17.31;78.75
56082;BME280;41957;52.060;5.138;2022-10-30T07:12:00;101800.63;;;17.32;78.63
56082;BME280;41957;52.060;5.138;2022-10-30T07:14:26;101797.03;;;17.33;78.35
56082;BME280;41957;52.060;5.138;2022-10-30T07:16:53;101798.78;;;17.34;78.31
56082;BME280;41957;52.060;5.138;2022-10-30T07:19:19;101791.72;;;17.33;78.34
56082;BME280;41957;52.060;5.138;2022-10-30T07:21:44;101789.00;;;17.34;77.83
56082;BME280;41957;52.060;5.138;2022-10-30T07:24:09;101783.66;;;17.36;78.11
56082;BME280;41957;52.060;5.138;2022-10-30T07:26:35;101788.03;;;17.37;78.13
56082;BME280;41957;52.060;5.138;2022-10-30T07:29:03;101795.03;;;17.41;78.01
56082;BME280;41957;52.060;5.138;2022-10-30T07:31:28;101790.47;;;17.45;77.65
56082;BME280;41957;52.060;5.138;2022-10-30T07:33:54;101780.81;;;17.42;77.23
56082;BME280;41957;52.060;5.138;2022-10-30T07:36:19;101776.38;;;17.42;77.13
56082;BME280;41957;52.060;5.138;2022-10-30T07:38:44;101775.44;;;17.43;77.28
56082;BME280;41957;52.060;5.138;2022-10-30T07:41:11;101783.19;;;17.51;76.70
56082;BME280;41957;52.060;5.138;2022-10-30T07:43:36;101781.94;;;17.63;73.73
56082;BME280;41957;52.060;5.138;2022-10-30T07:46:02;101781.94;;;17.63;71.91
56082;BME280;41957;52.060;5.138;2022-10-30T07:48:27;101774.06;;;17.60;71.55
56082;BME280;41957;52.060;5.138;2022-10-30T07:50:52;101775.69;;;17.64;71.26
56082;BME280;41957;52.060;5.138;2022-10-30T07:53:18;101784.59;;;17.63;70.36
56082;BME280;41957;52.060;5.138;2022-10-30T07:55:43;101778.31;;;17.65;72.15
56082;BME280;41957;52.060;5.138;2022-10-30T07:58:08;101779.38;;;17.88;73.25
56082;BME280;41957;52.060;5.138;2022-10-30T08:00:34;101779.91;;;17.99;72.98
56082;BME280;41957;52.060;5.138;2022-10-30T08:02:59;101777.03;;;18.05;72.47
56082;BME280;41957;52.060;5.138;2022-10-30T08:05:25;101778.56;;;18.13;72.25
56082;BME280;41957;52.060;5.138;2022-10-30T08:07:51;101781.19;;;18.14;72.33
56082;BME280;41957;52.060;5.138;2022-10-30T08:10:16;101781.00;;;18.19;72.37
56082;BME280;41957;52.060;5.138;2022-10-30T08:12:41;101783.53;;;18.23;72.13
56082;BME280;41957;52.060;5.138;2022-10-30T08:15:09;101783.34;;;18.28;72.39
56082;BME280;41957;52.060;5.138;2022-10-30T08:17:42;101781.53;;;18.30;72.52
56082;BME280;41957;52.060;5.138;2022-10-30T08:20:08;101779.69;;;18.32;72.50
56082;BME280;41957;52.060;5.138;2022-10-30T08:22:34;101787.56;;;18.35;72.39
56082;BME280;41957;52.060;5.138;2022-10-30T08:24:59;101783.91;;;18.38;72.15
56082;BME280;41957;52.060;5.138;2022-10-30T08:27:24;101794.50;;;18.39;72.65
56082;BME280;41957;52.060;5.138;2022-10-30T08:29:50;101791.84;;;18.39;72.52
56082;BME280;41957;52.060;5.138;2022-10-30T08:32:15;101792.81;;;18.37;73.04
56082;BME280;41957;52.060;5.138;2022-10-30T08:34:40;101794.66;;;18.34;73.17
56082;BME280;41957;52.060;5.138;2022-10-30T08:37:06;101791.09;;;18.36;73.15
56082;BME280;41957;52.060;5.138;2022-10-30T08:39:32;101784.00;;;18.34;73.19
56082;BME280;41957;52.060;5.138;2022-10-30T08:41:57;101790.34;;;18.32;73.07
56082;BME280;41957;52.060;5.138;2022-10-30T08:44:24;101785.97;;;18.29;73.44
56082;BME280;41957;52.060;5.138;2022-10-30T08:46:49;101789.34;;;18.34;73.54
56082;BME280;41957;52.060;5.138;2022-10-30T08:49:14;101792.91;;;18.35;73.52
56082;BME280;41957;52.060;5.138;2022-10-30T08:51:40;101799.78;;;18.41;73.14
56082;BME280;41957;52.060;5.138;2022-10-30T08:54:05;101797.94;;;18.43;73.48
56082;BME280;41957;52.060;5.138;2022-10-30T08:56:30;101806.78;;;18.43;73.32
56082;BME280;41957;52.060;5.138;2022-10-30T08:58:55;101804.03;;;18.46;73.50
56082;BME280;41957;52.060;5.138;2022-10-30T09:01:21;101787.06;;;18.49;73.03
56082;BME280;41957;52.060;5.138;2022-10-30T09:03:46;101776.41;;;18.49;73.33
56082;BME280;41957;52.060;5.138;2022-10-30T09:06:12;101782.59;;;18.49;73.60
56082;BME280;41957;52.060;5.138;2022-10-30T09:08:37;101775.66;;;18.45;73.50
56082;BME280;41957;52.060;5.138;2022-10-30T09:11:03;101774.72;;;18.46;73.50
56082;BME280;41957;52.060;5.138;2022-10-30T09:13:29;101764.03;;;18.48;73.27
56082;BME280;41957;52.060;5.138;2022-10-30T09:16:01;101773.81;;;18.47;73.67
56082;BME280;41957;52.060;5.138;2022-10-30T09:18:27;101777.47;;;18.45;73.71
56082;BME280;41957;52.060;5.138;2022-10-30T09:20:52;101782.69;;;18.48;73.44
56082;BME280;41957;52.060;5.138;2022-10-30T09:23:18;101779.03;;;18.50;73.38
56082;BME280;41957;52.060;5.138;2022-10-30T09:25:43;101782.56;;;18.51;73.13
56082;BME280;41957;52.060;5.138;2022-10-30T09:28:08;101792.41;;;18.49;72.71
56082;BME280;41957;52.060;5.138;2022-10-30T09:30:33;101789.13;;;18.41;72.61
56082;BME280;41957;52.060;5.138;2022-10-30T09:33:00;101788.25;;;18.40;72.71
56082;BME280;41957;52.060;5.138;2022-10-30T09:35:29;101798.03;;;18.40;72.39
56082;BME280;41957;52.060;5.138;2022-10-30T09:37:55;101793.59;;;18.40;72.62
56082;BME280;41957;52.060;5.138;2022-10-30T09:41:22;101798.88;;;18.42;72.11
56082;BME280;41957;52.060;5.138;2022-10-30T09:43:41;101811.31;;;18.41;72.62
56082;BME280;41957;52.060;5.138;2022-10-30T09:56:31;101795.34;;;18.41;72.94
56082;BME280;41957;52.060;5.138;2022-10-30T09:59:14;101794.44;;;18.41;72.93
56082;BME280;41957;52.060;5.138;2022-10-30T10:01:53;101791.75;;;18.42;73.10
56082;BME280;41957;52.060;5.138;2022-10-30T10:04:39;101793.47;;;18.43;73.18
56082;BME280;41957;52.060;5.138;2022-10-30T10:07:26;101787.28;;;18.43;73.17
56082;BME280;41957;52.060;5.138;2022-10-30T10:09:58;101792.56;;;18.44;73.21
56082;BME280;41957;52.060;5.138;2022-10-30T10:12:40;101789.91;;;18.44;73.18
56082;BME280;41957;52.060;5.138;2022-10-30T10:15:37;101790.78;;;18.45;73.14
56082;BME280;41957;52.060;5.138;2022-10-30T10:18:01;101795.25;;;18.44;73.22
56082;BME280;41957;52.060;5.138;2022-10-30T10:20:36;101798.69;;;18.46;73.17
56082;BME280;41957;52.060;5.138;2022-10-30T10:23:23;101791.63;;;18.45;73.42
56082;BME280;41957;52.060;5.138;2022-10-30T10:25:52;101799.63;;;18.45;73.43
56082;BME280;41957;52.060;5.138;2022-10-30T10:34:28;101791.63;;;18.45;73.21
56082;BME280;41957;52.060;5.138;2022-10-30T10:39:57;101807.53;;;18.47;73.55
56082;BME280;41957;52.060;5.138;2022-10-30T10:42:40;101800.44;;;18.47;73.40
56082;BME280;41957;52.060;5.138;2022-10-30T10:45:23;101796.00;;;18.48;73.75
56082;BME280;41957;52.060;5.138;2022-10-30T10:50:51;101788.00;;;18.48;73.62
56082;BME280;41957;52.060;5.138;2022-10-30T10:53:26;101787.13;;;18.47;73.63
56082;BME280;41957;52.060;5.138;2022-10-30T10:55:57;101796.84;;;18.48;73.55
56082;BME280;41957;52.060;5.138;2022-10-30T10:58:35;101788.00;;;18.48;73.71
56082;BME280;41957;52.060;5.138;2022-10-30T11:01:07;101776.41;;;18.49;73.47
56082;BME280;41957;52.060;5.138;2022-10-30T11:06:29;101771.97;;;18.49;73.88
56082;BME280;41957;52.060;5.138;2022-10-30T11:11:35;101767.50;;;18.50;73.87
56082;BME280;41957;52.060;5.138;2022-10-30T11:14:01;101755.00;;;18.52;73.90
56082;BME280;41957;52.060;5.138;2022-10-30T11:17:14;101757.66;;;18.52;73.62
56082;BME280;41957;52.060;5.138;2022-10-30T11:19:18;101755.00;;;18.52;73.81
56082;BME280;41957;52.060;5.138;2022-10-30T11:21:47;101755.88;;;18.52;74.06
56082;BME280;41957;52.060;5.138;2022-10-30T11:24:35;101749.69;;;18.52;73.89
56082;BME280;41957;52.060;5.138;2022-10-30T11:29:59;101740.75;;;18.53;74.03
56082;BME280;41957;52.060;5.138;2022-10-30T11:32:29;101744.34;;;18.52;74.15
56082;BME280;41957;52.060;5.138;2022-10-30T11:35:11;101747.84;;;18.54;74.02
56082;BME280;41957;52.060;5.138;2022-10-30T11:37:39;101744.31;;;18.53;74.16
56082;BME280;41957;52.060;5.138;2022-10-30T11:42:37;101743.31;;;18.56;74.13
56082;BME280;41957;52.060;5.138;2022-10-30T11:45:04;101739.78;;;18.55;74.32
56082;BME280;41957;52.060;5.138;2022-10-30T11:47:37;101741.53;;;18.56;73.91
56082;BME280;41957;52.060;5.138;2022-10-30T11:50:15;101737.94;;;18.57;73.82
56082;BME280;41957;52.060;5.138;2022-10-30T11:52:42;101739.69;;;18.58;74.10
56082;BME280;41957;52.060;5.138;2022-10-30T11:55:22;101734.31;;;18.60;74.03
56082;BME280;41957;52.060;5.138;2022-10-30T11:57:54;101732.50;;;18.61;74.10
56082;BME280;41957;52.060;5.138;2022-10-30T12:00:28;101734.31;;;18.60;74.01
56082;BME280;41957;52.060;5.138;2022-10-30T12:02:57;101735.16;;;18.61;74.21
56082;BME280;41957;52.060;5.138;2022-10-30T12:10:31;101735.22;;;18.59;74.47
56082;BME280;41957;52.060;5.138;2022-10-30T12:13:03;101732.41;;;18.64;74.04
56082;BME280;41957;52.060;5.138;2022-10-30T12:15:40;101728.78;;;18.65;73.96
56082;BME280;41957;52.060;5.138;2022-10-30T12:18:07;101724.44;;;18.62;74.13
56082;BME280;41957;52.060;5.138;2022-10-30T12:20:42;101728.78;;;18.65;74.04
56082;BME280;41957;52.060;5.138;2022-10-30T12:23:16;101722.50;;;18.67;74.51
56082;BME280;41957;52.060;5.138;2022-10-30T12:25:48;101723.34;;;18.68;74.52
56082;BME280;41957;52.060;5.138;2022-10-30T12:28:20;101716.31;;;18.67;74.93
56082;BME280;41957;52.060;5.138;2022-10-30T12:30:53;101715.47;;;18.65;74.90
56082;BME280;41957;52.060;5.138;2022-10-30T12:33:41;101714.63;;;18.64;74.88
56082;BME280;41957;52.060;5.138;2022-10-30T12:36:12;101715.44;;;18.66;74.53
56082;BME280;41957;52.060;5.138;2022-10-30T12:38:51;101718.03;;;18.68;74.39
56082;BME280;41957;52.060;5.138;2022-10-30T12:41:35;101718.03;;;18.68;74.64
56082;BME280;41957;52.060;5.138;2022-10-30T12:44:17;101714.47;;;18.69;74.67
56082;BME280;41957;52.060;5.138;2022-10-30T12:52:03;101711.09;;;18.64;74.58
56082;BME280;41957;52.060;5.138;2022-10-30T12:54:36;101699.56;;;18.63;74.68
56082;BME280;41957;52.060;5.138;2022-10-30T12:57:19;101695.94;;;18.66;74.65
56082;BME280;41957;52.060;5.138;2022-10-30T13:00:02;101701.31;;;18.64;74.19
56082;BME280;41957;52.060;5.138;2022-10-30T13:02:55;101695.97;;;18.64;74.55
56082;BME280;41957;52.060;5.138;2022-10-30T13:05:27;101695.09;;;18.64;74.76
56082;BME280;41957;52.060;5.138;2022-10-30T13:10:48;101690.59;;;18.66;74.43
56082;BME280;41957;52.060;5.138;2022-10-30T13:13:22;101696.78;;;18.66;74.52
56082;BME280;41957;52.060;5.138;2022-10-30T13:15:51;101703.84;;;18.67;74.63
56082;BME280;41957;52.060;5.138;2022-10-30T13:18:21;101699.38;;;18.68;74.48
56082;BME280;41957;52.060;5.138;2022-10-30T13:21:09;101699.47;;;18.66;74.57
56082;BME280;41957;52.060;5.138;2022-10-30T13:24:02;101703.84;;;18.67;74.38
56082;BME280;41957;52.060;5.138;2022-10-30T13:26:35;101708.25;;;18.68;74.67
56082;BME280;41957;52.060;5.138;2022-10-30T13:29:32;101710.97;;;18.67;74.55
56082;BME280;41957;52.060;5.138;2022-10-30T13:34:53;101711.84;;;18.67;74.69
56082;BME280;41957;52.060;5.138;2022-10-30T13:37:41;101703.94;;;18.66;74.46
56082;BME280;41957;52.060;5.138;2022-10-30T13:51:23;101703.94;;;18.66;75.00
56082;BME280;41957;52.060;5.138;2022-10-30T13:54:13;101704.81;;;18.65;74.80
56082;BME280;41957;52.060;5.138;2022-10-30T13:56:41;101706.41;;;18.70;74.83
56082;BME280;41957;52.060;5.138;2022-10-30T14:02:27;101710.78;;;18.73;74.95
56082;BME280;41957;52.060;5.138;2022-10-30T14:05:04;101708.13;;;18.73;74.73
56082;BME280;41957;52.060;5.138;2022-10-30T14:10:48;101700.88;;;18.76;74.74
56082;BME280;41957;52.060;5.138;2022-10-30T14:13:24;101698.28;;;18.75;74.62
56082;BME280;41957;52.060;5.138;2022-10-30T14:15:55;101688.50;;;18.75;74.87
56082;BME280;41957;52.060;5.138;2022-10-30T14:18:45;101688.41;;;18.77;74.92
56082;BME280;41957;52.060;5.138;2022-10-30T14:21:36;101683.16;;;18.75;74.86
56082;BME280;41957;52.060;5.138;2022-10-30T14:32:46;101692.25;;;18.68;75.17